Weather at Point Farm Heliport

Public forecast

Using degrees Fahrenheit for public forecast. Weather courtesy of forecast.io.

Closest aviation weather report (METAR) to Point Farm Heliport

Closest report is Langley Air Force Base, 21.4 nm (39.6 km) SW. Retrieved 2020/09/20 09:56 UTC (49 minutes ago):

KLFI 200956Z AUTO 05011KT 10SM CLR 16/10 A3032 RMK AO2 SLP274 T01580095

Closest aviation forecast (TAF) to Point Farm Heliport

Forecast is more than 12 hours old.

Closest forecast is Langley Air Force Base, 21.4 nm (39.6 km) SW. Retrieved 2020/09/19 18:30 UTC (16 hours ago):

TAF KLFI 191800Z 1918/2024 03015G25KT 9999 FEW028 SCT140 BKN200 510005 QNH3024INS BECMG 2014/2015 04015G25KT 9999 FEW035 510003 QNH3032INS TX19/1919Z TN16/2009Z LAST NO AMDS AFT 1920 NEXT 2109